sensor_id;sensor_type;location;lat;lon;timestamp;P1;durP1;ratioP1;P2;durP2;ratioP2
68987;SDS011;56038;46.080;11.116;2022-11-12T00:02:46;6.90;;;6.07;;
68987;SDS011;56038;46.080;11.116;2022-11-12T00:07:49;10.35;;;6.75;;
68987;SDS011;56038;46.080;11.116;2022-11-12T00:12:51;8.85;;;6.50;;
68987;SDS011;56038;46.080;11.116;2022-11-12T00:17:53;11.30;;;6.47;;
68987;SDS011;56038;46.080;11.116;2022-11-12T00:23:15;8.23;;;6.28;;
68987;SDS011;56038;46.080;11.116;2022-11-12T00:28:17;7.47;;;6.60;;
68987;SDS011;56038;46.080;11.116;2022-11-12T00:33:18;8.90;;;6.68;;
68987;SDS011;56038;46.080;11.116;2022-11-12T00:38:22;7.60;;;6.18;;
68987;SDS011;56038;46.080;11.116;2022-11-12T00:43:23;7.03;;;5.55;;
68987;SDS011;56038;46.080;11.116;2022-11-12T00:48:25;6.00;;;5.30;;
68987;SDS011;56038;46.080;11.116;2022-11-12T00:53:28;8.05;;;6.10;;
68987;SDS011;56038;46.080;11.116;2022-11-12T00:58:31;7.65;;;6.40;;
68987;SDS011;56038;46.080;11.116;2022-11-12T01:03:34;8.68;;;6.15;;
68987;SDS011;56038;46.080;11.116;2022-11-12T01:08:38;7.47;;;5.93;;
68987;SDS011;56038;46.080;11.116;2022-11-12T01:13:41;6.22;;;5.22;;
68987;SDS011;56038;46.080;11.116;2022-11-12T01:18:44;6.95;;;5.38;;
68987;SDS011;56038;46.080;11.116;2022-11-12T01:23:48;6.53;;;4.82;;
68987;SDS011;56038;46.080;11.116;2022-11-12T01:28:50;6.32;;;4.40;;
68987;SDS011;56038;46.080;11.116;2022-11-12T01:33:53;6.93;;;4.30;;
68987;SDS011;56038;46.080;11.116;2022-11-12T01:38:58;5.20;;;4.65;;
68987;SDS011;56038;46.080;11.116;2022-11-12T01:44:10;7.45;;;4.35;;
68987;SDS011;56038;46.080;11.116;2022-11-12T01:49:17;6.15;;;4.97;;
68987;SDS011;56038;46.080;11.116;2022-11-12T01:54:24;5.43;;;4.50;;
68987;SDS011;56038;46.080;11.116;2022-11-12T01:59:27;5.90;;;4.47;;
68987;SDS011;56038;46.080;11.116;2022-11-12T02:04:35;5.28;;;4.50;;
68987;SDS011;56038;46.080;11.116;2022-11-12T02:09:40;6.32;;;4.72;;
68987;SDS011;56038;46.080;11.116;2022-11-12T02:14:42;5.22;;;4.72;;
68987;SDS011;56038;46.080;11.116;2022-11-12T02:19:44;6.80;;;4.22;;
68987;SDS011;56038;46.080;11.116;2022-11-12T02:24:48;6.43;;;4.07;;
68987;SDS011;56038;46.080;11.116;2022-11-12T02:29:50;4.90;;;4.30;;
68987;SDS011;56038;46.080;11.116;2022-11-12T02:34:52;8.25;;;5.07;;
68987;SDS011;56038;46.080;11.116;2022-11-12T02:39:56;5.78;;;4.15;;
68987;SDS011;56038;46.080;11.116;2022-11-12T02:44:58;5.00;;;4.50;;
68987;SDS011;56038;46.080;11.116;2022-11-12T02:50:00;7.13;;;4.30;;
68987;SDS011;56038;46.080;11.116;2022-11-12T02:55:04;6.03;;;4.68;;
68987;SDS011;56038;46.080;11.116;2022-11-12T03:00:07;5.18;;;4.60;;
68987;SDS011;56038;46.080;11.116;2022-11-12T03:05:11;6.22;;;4.28;;
68987;SDS011;56038;46.080;11.116;2022-11-12T03:10:15;6.10;;;4.55;;
68987;SDS011;56038;46.080;11.116;2022-11-12T03:15:17;8.63;;;4.15;;
68987;SDS011;56038;46.080;11.116;2022-11-12T03:20:19;4.20;;;3.50;;
68987;SDS011;56038;46.080;11.116;2022-11-12T03:25:22;8.73;;;4.30;;
68987;SDS011;56038;46.080;11.116;2022-11-12T03:30:25;5.43;;;4.07;;
68987;SDS011;56038;46.080;11.116;2022-11-12T03:35:27;5.10;;;4.07;;
68987;SDS011;56038;46.080;11.116;2022-11-12T03:40:30;4.13;;;3.65;;
68987;SDS011;56038;46.080;11.116;2022-11-12T03:45:33;3.67;;;3.28;;
68987;SDS011;56038;46.080;11.116;2022-11-12T03:50:35;4.43;;;4.03;;
68987;SDS011;56038;46.080;11.116;2022-11-12T03:55:38;5.38;;;4.28;;
68987;SDS011;56038;46.080;11.116;2022-11-12T04:00:40;4.72;;;4.00;;
68987;SDS011;56038;46.080;11.116;2022-11-12T04:05:44;5.70;;;4.13;;
68987;SDS011;56038;46.080;11.116;2022-11-12T04:11:06;4.97;;;3.95;;
68987;SDS011;56038;46.080;11.116;2022-11-12T04:16:12;5.18;;;3.67;;
68987;SDS011;56038;46.080;11.116;2022-11-12T04:21:33;5.10;;;3.75;;
68987;SDS011;56038;46.080;11.116;2022-11-12T04:26:58;4.25;;;3.85;;
68987;SDS011;56038;46.080;11.116;2022-11-12T04:31:59;5.63;;;4.05;;
68987;SDS011;56038;46.080;11.116;2022-11-12T04:37:02;5.90;;;4.13;;
68987;SDS011;56038;46.080;11.116;2022-11-12T04:42:07;5.95;;;3.72;;
68987;SDS011;56038;46.080;11.116;2022-11-12T04:47:27;5.15;;;3.92;;
68987;SDS011;56038;46.080;11.116;2022-11-12T04:52:34;4.60;;;3.70;;
68987;SDS011;56038;46.080;11.116;2022-11-12T04:57:37;5.15;;;3.55;;
68987;SDS011;56038;46.080;11.116;2022-11-12T05:02:38;5.90;;;3.58;;
68987;SDS011;56038;46.080;11.116;2022-11-12T05:07:40;5.82;;;3.55;;
68987;SDS011;56038;46.080;11.116;2022-11-12T05:12:43;5.20;;;3.90;;
68987;SDS011;56038;46.080;11.116;2022-11-12T05:17:45;3.83;;;3.33;;
68987;SDS011;56038;46.080;11.116;2022-11-12T05:22:47;4.38;;;3.35;;
68987;SDS011;56038;46.080;11.116;2022-11-12T05:27:50;4.35;;;3.75;;
68987;SDS011;56038;46.080;11.116;2022-11-12T05:32:52;5.13;;;2.88;;
68987;SDS011;56038;46.080;11.116;2022-11-12T05:37:54;5.63;;;3.63;;
68987;SDS011;56038;46.080;11.116;2022-11-12T05:42:57;5.18;;;3.25;;
68987;SDS011;56038;46.080;11.116;2022-11-12T05:47:58;7.82;;;3.60;;
68987;SDS011;56038;46.080;11.116;2022-11-12T05:53:00;4.10;;;3.60;;
68987;SDS011;56038;46.080;11.116;2022-11-12T05:58:04;5.15;;;4.00;;
68987;SDS011;56038;46.080;11.116;2022-11-12T06:03:06;5.18;;;3.72;;
68987;SDS011;56038;46.080;11.116;2022-11-12T06:08:09;3.55;;;3.25;;
68987;SDS011;56038;46.080;11.116;2022-11-12T06:13:12;3.45;;;3.10;;
68987;SDS011;56038;46.080;11.116;2022-11-12T06:18:14;3.75;;;3.10;;
68987;SDS011;56038;46.080;11.116;2022-11-12T06:23:15;4.70;;;3.47;;
68987;SDS011;56038;46.080;11.116;2022-11-12T06:28:18;4.65;;;3.13;;
68987;SDS011;56038;46.080;11.116;2022-11-12T06:33:20;3.42;;;3.10;;
68987;SDS011;56038;46.080;11.116;2022-11-12T06:38:22;3.83;;;3.42;;
68987;SDS011;56038;46.080;11.116;2022-11-12T06:43:26;4.32;;;3.78;;
68987;SDS011;56038;46.080;11.116;2022-11-12T06:48:29;4.40;;;3.03;;
68987;SDS011;56038;46.080;11.116;2022-11-12T06:53:31;4.57;;;3.53;;
68987;SDS011;56038;46.080;11.116;2022-11-12T06:58:34;4.03;;;3.17;;
68987;SDS011;56038;46.080;11.116;2022-11-12T07:03:37;3.65;;;3.08;;
68987;SDS011;56038;46.080;11.116;2022-11-12T07:08:39;3.60;;;2.83;;
68987;SDS011;56038;46.080;11.116;2022-11-12T07:13:43;4.32;;;3.10;;
68987;SDS011;56038;46.080;11.116;2022-11-12T07:18:45;6.53;;;4.10;;
68987;SDS011;56038;46.080;11.116;2022-11-12T07:23:47;3.95;;;3.55;;
68987;SDS011;56038;46.080;11.116;2022-11-12T07:28:51;5.85;;;3.85;;
68987;SDS011;56038;46.080;11.116;2022-11-12T07:33:54;3.47;;;3.17;;
68987;SDS011;56038;46.080;11.116;2022-11-12T07:38:56;9.40;;;4.22;;
68987;SDS011;56038;46.080;11.116;2022-11-12T07:44:00;5.38;;;3.60;;
68987;SDS011;56038;46.080;11.116;2022-11-12T07:49:04;7.03;;;4.00;;
68987;SDS011;56038;46.080;11.116;2022-11-12T07:54:06;5.15;;;3.80;;
68987;SDS011;56038;46.080;11.116;2022-11-12T07:59:09;6.10;;;4.00;;
68987;SDS011;56038;46.080;11.116;2022-11-12T08:04:11;5.85;;;3.75;;
68987;SDS011;56038;46.080;11.116;2022-11-12T08:09:13;4.60;;;4.05;;
68987;SDS011;56038;46.080;11.116;2022-11-12T08:14:16;4.53;;;3.72;;
68987;SDS011;56038;46.080;11.116;2022-11-12T08:19:18;4.45;;;3.50;;
68987;SDS011;56038;46.080;11.116;2022-11-12T08:24:20;5.95;;;4.78;;
68987;SDS011;56038;46.080;11.116;2022-11-12T08:29:23;4.07;;;3.72;;
68987;SDS011;56038;46.080;11.116;2022-11-12T08:34:25;4.72;;;3.63;;
68987;SDS011;56038;46.080;11.116;2022-11-12T08:39:26;4.45;;;3.50;;
68987;SDS011;56038;46.080;11.116;2022-11-12T08:44:30;5.72;;;4.22;;
68987;SDS011;56038;46.080;11.116;2022-11-12T08:49:31;5.97;;;3.53;;
68987;SDS011;56038;46.080;11.116;2022-11-12T08:54:33;4.85;;;3.30;;
68987;SDS011;56038;46.080;11.116;2022-11-12T08:59:39;5.22;;;3.72;;
68987;SDS011;56038;46.080;11.116;2022-11-12T09:04:43;4.70;;;3.65;;
68987;SDS011;56038;46.080;11.116;2022-11-12T09:09:45;4.20;;;3.60;;
68987;SDS011;56038;46.080;11.116;2022-11-12T09:14:48;4.78;;;3.33;;
68987;SDS011;56038;46.080;11.116;2022-11-12T09:19:50;5.95;;;2.47;;
68987;SDS011;56038;46.080;11.116;2022-11-12T09:24:52;4.63;;;3.28;;
68987;SDS011;56038;46.080;11.116;2022-11-12T09:29:55;4.22;;;2.70;;
68987;SDS011;56038;46.080;11.116;2022-11-12T09:34:57;2.28;;;2.00;;
68987;SDS011;56038;46.080;11.116;2022-11-12T09:39:58;3.50;;;2.00;;
68987;SDS011;56038;46.080;11.116;2022-11-12T09:45:02;2.47;;;2.28;;
68987;SDS011;56038;46.080;11.116;2022-11-12T09:50:15;6.35;;;2.72;;
68987;SDS011;56038;46.080;11.116;2022-11-12T09:55:23;3.10;;;2.33;;
68987;SDS011;56038;46.080;11.116;2022-11-12T10:00:30;4.57;;;2.60;;
68987;SDS011;56038;46.080;11.116;2022-11-12T10:05:32;2.70;;;2.10;;
68987;SDS011;56038;46.080;11.116;2022-11-12T10:10:43;3.72;;;2.25;;
68987;SDS011;56038;46.080;11.116;2022-11-12T10:15:56;3.00;;;2.53;;
68987;SDS011;56038;46.080;11.116;2022-11-12T10:21:22;2.78;;;2.45;;
68987;SDS011;56038;46.080;11.116;2022-11-12T10:26:32;3.17;;;2.88;;
68987;SDS011;56038;46.080;11.116;2022-11-12T10:31:35;5.00;;;2.50;;
68987;SDS011;56038;46.080;11.116;2022-11-12T10:36:37;3.47;;;2.83;;
68987;SDS011;56038;46.080;11.116;2022-11-12T10:41:43;3.90;;;3.13;;
68987;SDS011;56038;46.080;11.116;2022-11-12T10:46:46;4.95;;;3.90;;
68987;SDS011;56038;46.080;11.116;2022-11-12T10:51:53;3.00;;;2.53;;
68987;SDS011;56038;46.080;11.116;2022-11-12T10:56:57;3.95;;;2.67;;
68987;SDS011;56038;46.080;11.116;2022-11-12T11:02:20;2.92;;;2.50;;
68987;SDS011;56038;46.080;11.116;2022-11-12T11:07:22;3.00;;;2.70;;
68987;SDS011;56038;46.080;11.116;2022-11-12T11:12:26;3.20;;;2.22;;
68987;SDS011;56038;46.080;11.116;2022-11-12T11:17:31;2.83;;;2.58;;
68987;SDS011;56038;46.080;11.116;2022-11-12T11:22:35;3.47;;;2.22;;
68987;SDS011;56038;46.080;11.116;2022-11-12T11:27:45;7.65;;;5.10;;
68987;SDS011;56038;46.080;11.116;2022-11-12T11:33:08;3.92;;;3.15;;
68987;SDS011;56038;46.080;11.116;2022-11-12T11:38:31;6.75;;;4.82;;
68987;SDS011;56038;46.080;11.116;2022-11-12T11:43:44;2.05;;;1.80;;
68987;SDS011;56038;46.080;11.116;2022-11-12T11:49:03;3.00;;;2.50;;
68987;SDS011;56038;46.080;11.116;2022-11-12T11:54:24;3.10;;;2.80;;
68987;SDS011;56038;46.080;11.116;2022-11-12T11:59:42;3.75;;;2.55;;
68987;SDS011;56038;46.080;11.116;2022-11-12T12:04:57;3.30;;;2.70;;
68987;SDS011;56038;46.080;11.116;2022-11-12T12:10:13;2.60;;;2.22;;
68987;SDS011;56038;46.080;11.116;2022-11-12T12:15:27;4.22;;;2.30;;
68987;SDS011;56038;46.080;11.116;2022-11-12T12:20:42;2.33;;;2.13;;
68987;SDS011;56038;46.080;11.116;2022-11-12T12:25:50;3.92;;;2.13;;
68987;SDS011;56038;46.080;11.116;2022-11-12T12:30:57;2.38;;;2.10;;
68987;SDS011;56038;46.080;11.116;2022-11-12T12:36:07;3.25;;;2.13;;
68987;SDS011;56038;46.080;11.116;2022-11-12T12:41:14;2.63;;;2.40;;
68987;SDS011;56038;46.080;11.116;2022-11-12T12:46:26;3.47;;;2.50;;
68987;SDS011;56038;46.080;11.116;2022-11-12T12:51:33;2.65;;;1.83;;
68987;SDS011;56038;46.080;11.116;2022-11-12T12:56:41;8.60;;;5.75;;
68987;SDS011;56038;46.080;11.116;2022-11-12T13:01:50;3.20;;;2.40;;
68987;SDS011;56038;46.080;11.116;2022-11-12T13:06:57;2.65;;;2.30;;
68987;SDS011;56038;46.080;11.116;2022-11-12T13:11:59;2.53;;;2.00;;
68987;SDS011;56038;46.080;11.116;2022-11-12T13:22:51;2.33;;;1.85;;
68987;SDS011;56038;46.080;11.116;2022-11-12T13:28:03;3.33;;;2.30;;
68987;SDS011;56038;46.080;11.116;2022-11-12T13:33:19;2.47;;;2.28;;
68987;SDS011;56038;46.080;11.116;2022-11-12T13:38:27;4.20;;;2.15;;
68987;SDS011;56038;46.080;11.116;2022-11-12T13:43:30;3.60;;;2.53;;
68987;SDS011;56038;46.080;11.116;2022-11-12T13:48:38;3.88;;;2.50;;
68987;SDS011;56038;46.080;11.116;2022-11-12T13:53:44;2.40;;;2.20;;
68987;SDS011;56038;46.080;11.116;2022-11-12T13:58:46;2.55;;;2.30;;
68987;SDS011;56038;46.080;11.116;2022-11-12T14:03:49;3.53;;;2.50;;
68987;SDS011;56038;46.080;11.116;2022-11-12T14:08:59;4.75;;;2.97;;
68987;SDS011;56038;46.080;11.116;2022-11-12T14:14:15;6.47;;;3.08;;
68987;SDS011;56038;46.080;11.116;2022-11-12T14:19:37;2.80;;;2.58;;
68987;SDS011;56038;46.080;11.116;2022-11-12T14:24:59;5.55;;;2.97;;
68987;SDS011;56038;46.080;11.116;2022-11-12T14:30:12;3.33;;;2.47;;
68987;SDS011;56038;46.080;11.116;2022-11-12T14:35:25;4.63;;;3.08;;
68987;SDS011;56038;46.080;11.116;2022-11-12T14:40:32;3.85;;;2.88;;
68987;SDS011;56038;46.080;11.116;2022-11-12T14:45:36;5.18;;;3.03;;
68987;SDS011;56038;46.080;11.116;2022-11-12T14:50:37;3.25;;;2.83;;
68987;SDS011;56038;46.080;11.116;2022-11-12T14:55:41;3.72;;;3.42;;
68987;SDS011;56038;46.080;11.116;2022-11-12T15:00:50;5.13;;;3.97;;
68987;SDS011;56038;46.080;11.116;2022-11-12T15:05:53;5.82;;;4.10;;
68987;SDS011;56038;46.080;11.116;2022-11-12T15:11:01;5.00;;;4.10;;
68987;SDS011;56038;46.080;11.116;2022-11-12T15:16:18;10.15;;;5.10;;
68987;SDS011;56038;46.080;11.116;2022-11-12T15:21:24;4.53;;;4.03;;
68987;SDS011;56038;46.080;11.116;2022-11-12T15:26:31;5.25;;;3.63;;
68987;SDS011;56038;46.080;11.116;2022-11-12T15:31:40;5.32;;;3.50;;
68987;SDS011;56038;46.080;11.116;2022-11-12T15:36:44;5.45;;;3.20;;
68987;SDS011;56038;46.080;11.116;2022-11-12T15:41:47;5.32;;;3.67;;
68987;SDS011;56038;46.080;11.116;2022-11-12T15:47:00;4.88;;;3.58;;
68987;SDS011;56038;46.080;11.116;2022-11-12T15:52:03;6.45;;;3.75;;
68987;SDS011;56038;46.080;11.116;2022-11-12T15:57:07;6.03;;;4.13;;
68987;SDS011;56038;46.080;11.116;2022-11-12T16:02:12;5.57;;;3.78;;
68987;SDS011;56038;46.080;11.116;2022-11-12T16:07:15;4.53;;;3.85;;
68987;SDS011;56038;46.080;11.116;2022-11-12T16:12:18;6.45;;;3.40;;
68987;SDS011;56038;46.080;11.116;2022-11-12T16:17:20;4.45;;;3.35;;
68987;SDS011;56038;46.080;11.116;2022-11-12T16:22:22;5.43;;;4.53;;
68987;SDS011;56038;46.080;11.116;2022-11-12T16:27:25;6.97;;;4.30;;
68987;SDS011;56038;46.080;11.116;2022-11-12T16:32:27;6.53;;;5.38;;
68987;SDS011;56038;46.080;11.116;2022-11-12T16:37:29;9.55;;;7.70;;
68987;SDS011;56038;46.080;11.116;2022-11-12T16:42:35;8.95;;;7.65;;
68987;SDS011;56038;46.080;11.116;2022-11-12T16:47:37;10.23;;;8.25;;
68987;SDS011;56038;46.080;11.116;2022-11-12T16:52:44;9.57;;;7.35;;
68987;SDS011;56038;46.080;11.116;2022-11-12T16:57:47;12.32;;;7.65;;
68987;SDS011;56038;46.080;11.116;2022-11-12T17:02:49;9.20;;;7.95;;
68987;SDS011;56038;46.080;11.116;2022-11-12T17:07:54;11.98;;;7.78;;
68987;SDS011;56038;46.080;11.116;2022-11-12T17:12:58;11.25;;;8.07;;
68987;SDS011;56038;46.080;11.116;2022-11-12T17:18:00;10.50;;;8.70;;
68987;SDS011;56038;46.080;11.116;2022-11-12T17:23:02;11.05;;;8.95;;
68987;SDS011;56038;46.080;11.116;2022-11-12T17:28:05;10.23;;;7.68;;
68987;SDS011;56038;46.080;11.116;2022-11-12T17:33:07;10.82;;;8.40;;
68987;SDS011;56038;46.080;11.116;2022-11-12T17:38:09;12.52;;;7.63;;
68987;SDS011;56038;46.080;11.116;2022-11-12T17:43:16;12.35;;;8.38;;
68987;SDS011;56038;46.080;11.116;2022-11-12T17:48:17;13.07;;;8.13;;
68987;SDS011;56038;46.080;11.116;2022-11-12T17:53:19;14.52;;;9.88;;
68987;SDS011;56038;46.080;11.116;2022-11-12T17:58:23;44.75;;;28.05;;
68987;SDS011;56038;46.080;11.116;2022-11-12T18:03:25;20.50;;;13.90;;
68987;SDS011;56038;46.080;11.116;2022-11-12T18:08:26;16.10;;;10.55;;
68987;SDS011;56038;46.080;11.116;2022-11-12T18:13:30;20.92;;;13.45;;
68987;SDS011;56038;46.080;11.116;2022-11-12T18:18:32;15.02;;;10.10;;
68987;SDS011;56038;46.080;11.116;2022-11-12T18:23:34;14.75;;;9.68;;
68987;SDS011;56038;46.080;11.116;2022-11-12T18:28:38;13.25;;;8.40;;
68987;SDS011;56038;46.080;11.116;2022-11-12T18:33:40;14.57;;;9.93;;
68987;SDS011;56038;46.080;11.116;2022-11-12T18:38:41;15.85;;;10.27;;
68987;SDS011;56038;46.080;11.116;2022-11-12T18:43:47;15.55;;;10.63;;
68987;SDS011;56038;46.080;11.116;2022-11-12T18:48:49;12.05;;;10.73;;
68987;SDS011;56038;46.080;11.116;2022-11-12T18:53:51;12.50;;;9.90;;
68987;SDS011;56038;46.080;11.116;2022-11-12T18:58:54;15.45;;;11.10;;
68987;SDS011;56038;46.080;11.116;2022-11-12T19:03:56;16.88;;;10.65;;
68987;SDS011;56038;46.080;11.116;2022-11-12T19:09:01;15.73;;;11.53;;
68987;SDS011;56038;46.080;11.116;2022-11-12T19:14:04;16.30;;;12.20;;
68987;SDS011;56038;46.080;11.116;2022-11-12T19:19:06;23.15;;;15.25;;
68987;SDS011;56038;46.080;11.116;2022-11-12T19:24:15;24.75;;;15.60;;
68987;SDS011;56038;46.080;11.116;2022-11-12T19:29:18;21.05;;;15.18;;
68987;SDS011;56038;46.080;11.116;2022-11-12T19:34:20;18.25;;;13.35;;
68987;SDS011;56038;46.080;11.116;2022-11-12T19:39:21;21.73;;;13.25;;
68987;SDS011;56038;46.080;11.116;2022-11-12T19:44:25;20.50;;;14.63;;
68987;SDS011;56038;46.080;11.116;2022-11-12T19:49:26;24.27;;;17.95;;
68987;SDS011;56038;46.080;11.116;2022-11-12T19:54:28;30.98;;;19.90;;
68987;SDS011;56038;46.080;11.116;2022-11-12T19:59:31;24.50;;;17.70;;
68987;SDS011;56038;46.080;11.116;2022-11-12T20:04:42;26.08;;;17.73;;
68987;SDS011;56038;46.080;11.116;2022-11-12T20:09:43;18.23;;;14.25;;
68987;SDS011;56038;46.080;11.116;2022-11-12T20:14:47;18.45;;;14.10;;
68987;SDS011;56038;46.080;11.116;2022-11-12T20:19:48;22.67;;;14.95;;
68987;SDS011;56038;46.080;11.116;2022-11-12T20:24:50;17.10;;;13.35;;
68987;SDS011;56038;46.080;11.116;2022-11-12T20:29:53;17.73;;;11.88;;
68987;SDS011;56038;46.080;11.116;2022-11-12T20:34:55;16.88;;;11.82;;
68987;SDS011;56038;46.080;11.116;2022-11-12T20:39:57;18.13;;;12.75;;
68987;SDS011;56038;46.080;11.116;2022-11-12T20:45:00;20.45;;;14.98;;
68987;SDS011;56038;46.080;11.116;2022-11-12T20:50:02;22.45;;;14.80;;
68987;SDS011;56038;46.080;11.116;2022-11-12T20:55:04;17.95;;;13.00;;
68987;SDS011;56038;46.080;11.116;2022-11-12T21:00:12;17.02;;;12.93;;
68987;SDS011;56038;46.080;11.116;2022-11-12T21:05:14;13.60;;;12.05;;
68987;SDS011;56038;46.080;11.116;2022-11-12T21:10:17;18.67;;;13.52;;
68987;SDS011;56038;46.080;11.116;2022-11-12T21:15:20;18.50;;;13.05;;
68987;SDS011;56038;46.080;11.116;2022-11-12T21:20:22;17.60;;;13.10;;
68987;SDS011;56038;46.080;11.116;2022-11-12T21:25:24;20.08;;;14.02;;
68987;SDS011;56038;46.080;11.116;2022-11-12T21:30:27;14.25;;;12.13;;
68987;SDS011;56038;46.080;11.116;2022-11-12T21:35:29;22.67;;;14.05;;
68987;SDS011;56038;46.080;11.116;2022-11-12T21:40:30;17.77;;;12.98;;
68987;SDS011;56038;46.080;11.116;2022-11-12T21:45:34;12.80;;;9.95;;
68987;SDS011;56038;46.080;11.116;2022-11-12T21:50:36;14.70;;;10.68;;
68987;SDS011;56038;46.080;11.116;2022-11-12T21:55:37;15.85;;;11.40;;
68987;SDS011;56038;46.080;11.116;2022-11-12T22:00:40;16.83;;;11.43;;
68987;SDS011;56038;46.080;11.116;2022-11-12T22:05:42;13.30;;;10.70;;
68987;SDS011;56038;46.080;11.116;2022-11-12T22:10:44;14.40;;;9.43;;
68987;SDS011;56038;46.080;11.116;2022-11-12T22:15:47;11.38;;;9.07;;
68987;SDS011;56038;46.080;11.116;2022-11-12T22:20:56;11.23;;;8.52;;
68987;SDS011;56038;46.080;11.116;2022-11-12T22:25:58;11.73;;;9.75;;
68987;SDS011;56038;46.080;11.116;2022-11-12T22:31:04;9.82;;;8.80;;
68987;SDS011;56038;46.080;11.116;2022-11-12T22:36:08;10.30;;;8.38;;
68987;SDS011;56038;46.080;11.116;2022-11-12T22:41:12;17.83;;;8.82;;
68987;SDS011;56038;46.080;11.116;2022-11-12T22:46:18;13.02;;;9.02;;
68987;SDS011;56038;46.080;11.116;2022-11-12T22:51:20;13.23;;;10.45;;
68987;SDS011;56038;46.080;11.116;2022-11-12T22:56:23;11.63;;;9.40;;
68987;SDS011;56038;46.080;11.116;2022-11-12T23:01:28;12.80;;;9.30;;
68987;SDS011;56038;46.080;11.116;2022-11-12T23:06:31;9.32;;;8.15;;
68987;SDS011;56038;46.080;11.116;2022-11-12T23:11:34;10.75;;;8.20;;
68987;SDS011;56038;46.080;11.116;2022-11-12T23:16:38;9.90;;;7.95;;
68987;SDS011;56038;46.080;11.116;2022-11-12T23:21:40;12.52;;;8.55;;
68987;SDS011;56038;46.080;11.116;2022-11-12T23:26:41;13.82;;;8.60;;
68987;SDS011;56038;46.080;11.116;2022-11-12T23:31:45;10.63;;;7.93;;
68987;SDS011;56038;46.080;11.116;2022-11-12T23:36:46;8.38;;;7.57;;
68987;SDS011;56038;46.080;11.116;2022-11-12T23:41:48;10.50;;;7.90;;
68987;SDS011;56038;46.080;11.116;2022-11-12T23:46:51;8.40;;;7.47;;
68987;SDS011;56038;46.080;11.116;2022-11-12T23:51:53;9.82;;;7.75;;
68987;SDS011;56038;46.080;11.116;2022-11-12T23:56:55;9.07;;;7.22;;
